Terminal Aerodrome Forecast
Issued by NWS

Home | Current Version | Previous Version | Text Only | Print | Product List | Glossary On
Versions: 1 2 3 4 5 6 7 8 9 10 11 12 13 14 15 16 17 18 19 20 21 22 23 24 25 26 27 28 29 30 31 32 33 34 35 36 37 38 39
000
FTUS43 KDDC 230650 AAA
TAFHYS
TAF AMD
KHYS 230650Z 2307/2406 01017KT P6SM BKN018 OVC100
     FM230900 32010KT P6SM SCT100
     FM231500 34015G25KT P6SM SCT070 SCT100
     FM231800 34019G29KT P6SM OVC070
     FM240000 36010G20KT P6SM BKN070
     FM240300 36007KT P6SM SCT070=

USA.gov is the U.S. government's official web portal to all federal, state and local government web resources and services.